createdAt,value
2023-04-16T00:01:46.618Z,6.53
2023-04-16T00:04:15.012Z,6.51
2023-04-16T00:06:43.227Z,6.46
2023-04-16T00:09:11.667Z,6.39
2023-04-16T00:11:39.782Z,6.35
2023-04-16T00:14:07.790Z,6.32
2023-04-16T00:16:35.807Z,6.31
2023-04-16T00:19:03.996Z,6.27
2023-04-16T00:21:32.378Z,6.23
2023-04-16T00:24:00.450Z,6.22
2023-04-16T00:26:28.517Z,6.21
2023-04-16T00:28:56.795Z,6.18
2023-04-16T00:31:32.866Z,6.14
2023-04-16T00:34:01.078Z,6.09
2023-04-16T00:36:29.541Z,6.06
2023-04-16T00:38:57.689Z,6.03
2023-04-16T00:41:26.984Z,6.00
2023-04-16T00:43:55.057Z,5.96
2023-04-16T00:46:25.068Z,5.93
2023-04-16T00:48:54.473Z,5.90
2023-04-16T00:51:22.763Z,5.86
2023-04-16T00:53:51.238Z,5.83
2023-04-16T00:56:20.567Z,5.80
2023-04-16T00:58:49.830Z,5.76
2023-04-16T01:01:18.138Z,5.72
2023-04-16T01:03:48.030Z,5.71
2023-04-16T01:06:17.954Z,5.71
2023-04-16T01:08:47.855Z,5.69
2023-04-16T01:11:16.655Z,5.68
2023-04-16T01:13:44.717Z,5.67
2023-04-16T01:16:13.140Z,5.65
2023-04-16T01:18:41.276Z,5.65
2023-04-16T01:21:09.649Z,5.66
2023-04-16T01:23:38.131Z,5.69
2023-04-16T01:26:06.616Z,5.68
2023-04-16T01:28:34.691Z,5.70
2023-04-16T01:31:02.794Z,5.73
2023-04-16T01:33:44.356Z,5.74
2023-04-16T01:36:13.379Z,5.76
2023-04-16T01:38:41.518Z,5.76
2023-04-16T01:41:09.443Z,5.74
2023-04-16T01:43:40.036Z,5.69
2023-04-16T01:46:29.672Z,5.68
2023-04-16T01:48:58.583Z,5.71
2023-04-16T01:51:28.305Z,5.72
2023-04-16T01:53:58.421Z,5.71
2023-04-16T01:56:26.791Z,5.71
2023-04-16T01:58:54.981Z,5.72
2023-04-16T02:01:24.363Z,5.70
2023-04-16T02:03:53.596Z,5.67
2023-04-16T02:06:21.743Z,5.62
2023-04-16T02:08:50.127Z,5.57
2023-04-16T02:11:18.231Z,5.51
2023-04-16T02:13:47.095Z,5.43
2023-04-16T02:16:15.702Z,5.37
2023-04-16T02:19:13.435Z,5.31
2023-04-16T02:21:42.014Z,5.25
2023-04-16T02:24:10.295Z,5.21
2023-04-16T02:26:38.567Z,5.19
2023-04-16T02:29:09.971Z,5.19
2023-04-16T02:31:42.874Z,5.17
2023-04-16T02:34:11.478Z,5.14
2023-04-16T02:36:39.767Z,5.11
2023-04-16T02:39:08.544Z,5.07
2023-04-16T02:41:37.033Z,5.00
2023-04-16T02:44:05.769Z,4.94
2023-04-16T02:46:33.803Z,4.89
2023-04-16T02:49:01.863Z,4.85
2023-04-16T02:51:30.337Z,4.84
2023-04-16T02:53:58.419Z,4.83
2023-04-16T02:56:26.312Z,4.81
2023-04-16T02:58:54.559Z,4.78
2023-04-16T03:01:22.586Z,4.78
2023-04-16T03:03:50.722Z,4.76
2023-04-16T03:06:18.992Z,4.76
2023-04-16T03:08:46.962Z,4.77
2023-04-16T03:11:15.079Z,4.74
2023-04-16T03:13:43.200Z,4.68
2023-04-16T03:16:11.975Z,4.65
2023-04-16T03:18:40.261Z,4.65
2023-04-16T03:21:08.327Z,4.63
2023-04-16T03:23:36.703Z,4.61
2023-04-16T03:26:06.721Z,4.61
2023-04-16T03:28:35.106Z,4.60
2023-04-16T03:31:03.605Z,4.60
2023-04-16T03:33:31.885Z,4.56
2023-04-16T03:35:59.955Z,4.52
2023-04-16T03:38:30.593Z,4.51
2023-04-16T03:40:59.974Z,4.51
2023-04-16T03:43:28.244Z,4.54
2023-04-16T03:45:56.680Z,4.55
2023-04-16T03:48:24.815Z,4.57
2023-04-16T03:50:54.329Z,4.59
2023-04-16T03:53:22.555Z,4.62
2023-04-16T03:55:51.953Z,4.67
2023-04-16T03:58:21.294Z,4.73
2023-04-16T04:00:49.364Z,4.79
2023-04-16T04:03:18.834Z,4.86
2023-04-16T04:05:48.786Z,4.94
2023-04-16T04:08:20.950Z,4.99
2023-04-16T04:10:49.015Z,5.07
2023-04-16T04:13:17.089Z,5.15
2023-04-16T04:15:45.475Z,5.23
2023-04-16T04:18:13.369Z,5.32
2023-04-16T04:20:41.545Z,5.42
2023-04-16T04:23:09.675Z,5.51
2023-04-16T04:25:37.722Z,5.59
2023-04-16T04:28:05.841Z,5.69
2023-04-16T04:30:35.890Z,5.77
2023-04-16T04:33:04.658Z,5.85
2023-04-16T04:35:33.236Z,5.91
2023-04-16T04:38:03.692Z,5.98
2023-04-16T04:40:32.335Z,6.02
2023-04-16T04:43:00.396Z,6.06
2023-04-16T04:45:31.201Z,6.10
2023-04-16T04:48:00.212Z,6.14
2023-04-16T04:50:28.727Z,6.18
2023-04-16T04:52:56.892Z,6.23
2023-04-16T04:55:25.059Z,6.26
2023-04-16T04:57:53.048Z,6.30
2023-04-16T05:00:22.026Z,6.35
2023-04-16T05:02:55.377Z,6.43
2023-04-16T05:05:23.645Z,6.50
2023-04-16T05:07:51.978Z,6.56
2023-04-16T05:10:20.352Z,6.62
2023-04-16T05:12:49.100Z,6.71
2023-04-16T05:15:17.320Z,6.80
2023-04-16T05:17:45.712Z,6.87
2023-04-16T05:20:13.964Z,6.94
2023-04-16T05:22:42.095Z,7.03
2023-04-16T05:25:10.733Z,7.11
2023-04-16T05:27:38.931Z,7.15
2023-04-16T05:30:07.890Z,7.19
2023-04-16T05:32:37.432Z,7.26
2023-04-16T05:35:06.445Z,7.33
2023-04-16T05:37:34.424Z,7.40
2023-04-16T05:40:02.619Z,7.45
2023-04-16T05:42:30.710Z,7.51
2023-04-16T05:44:58.775Z,7.59
2023-04-16T05:47:26.877Z,7.68
2023-04-16T05:49:54.991Z,7.76
2023-04-16T05:52:22.962Z,7.83
2023-04-16T05:54:51.068Z,7.92
2023-04-16T05:57:19.052Z,7.99
2023-04-16T05:59:47.114Z,8.07
2023-04-16T06:02:15.219Z,8.14
2023-04-16T06:04:44.169Z,8.23
2023-04-16T06:07:12.142Z,8.32
2023-04-16T06:09:40.094Z,8.40
2023-04-16T06:12:08.181Z,8.50
2023-04-16T06:14:36.359Z,8.64
2023-04-16T06:17:04.681Z,8.78
2023-04-16T06:19:32.786Z,8.92
2023-04-16T06:22:01.188Z,9.07
2023-04-16T06:24:29.672Z,9.22
2023-04-16T06:26:58.057Z,9.36
2023-04-16T06:29:33.664Z,9.51
2023-04-16T06:32:08.824Z,9.67
2023-04-16T06:34:38.515Z,9.80
2023-04-16T06:37:09.137Z,9.94
2023-04-16T06:39:38.610Z,10.04
2023-04-16T06:42:06.751Z,10.09
2023-04-16T06:44:35.942Z,10.16
2023-04-16T06:47:04.137Z,10.26
2023-04-16T06:49:32.312Z,10.37
2023-04-16T06:52:00.904Z,10.46
2023-04-16T06:54:28.951Z,10.54
2023-04-16T06:56:57.017Z,10.63
2023-04-16T06:59:25.400Z,10.65
2023-04-16T07:01:53.681Z,10.73
2023-04-16T07:04:22.010Z,10.83
2023-04-16T07:06:50.244Z,10.93
2023-04-16T07:09:18.311Z,11.03
2023-04-16T07:11:47.215Z,11.12
2023-04-16T07:14:15.363Z,11.25
2023-04-16T07:16:43.483Z,11.38
2023-04-16T07:19:12.035Z,11.54
2023-04-16T07:21:42.192Z,11.69
2023-04-16T07:24:13.884Z,11.84
2023-04-16T07:26:41.968Z,12.01
2023-04-16T07:29:10.302Z,12.19
2023-04-16T07:31:38.948Z,12.37
2023-04-16T07:34:07.406Z,12.54
2023-04-16T07:36:35.482Z,12.69
2023-04-16T07:39:06.324Z,12.83
2023-04-16T07:41:34.464Z,12.96
2023-04-16T07:44:02.562Z,13.07
2023-04-16T07:46:39.312Z,13.17
2023-04-16T07:49:13.959Z,13.27
2023-04-16T07:51:42.059Z,13.39
2023-04-16T07:54:11.242Z,13.49
2023-04-16T07:56:39.521Z,13.60
2023-04-16T07:59:21.030Z,13.74
2023-04-16T08:01:54.276Z,13.88
2023-04-16T08:04:26.383Z,14.02
2023-04-16T08:06:54.719Z,14.13
2023-04-16T08:09:24.446Z,14.25
2023-04-16T08:11:52.639Z,14.35
2023-04-16T08:14:21.010Z,14.45
2023-04-16T08:16:49.988Z,14.56
2023-04-16T08:19:18.386Z,14.66
2023-04-16T08:21:47.369Z,14.77
2023-04-16T08:24:15.620Z,14.88
2023-04-16T08:26:43.825Z,14.98
2023-04-16T08:29:12.033Z,15.07
2023-04-16T08:31:41.216Z,15.17
2023-04-16T08:34:11.618Z,15.27
2023-04-16T08:36:41.175Z,15.36
2023-04-16T08:39:09.847Z,15.47
2023-04-16T08:41:42.595Z,15.58
2023-04-16T08:44:33.869Z,15.71
2023-04-16T08:47:02.461Z,15.87
2023-04-16T08:49:35.162Z,15.99
2023-04-16T08:52:06.818Z,16.06
2023-04-16T08:55:00.498Z,16.11
2023-04-16T08:57:36.557Z,16.17
2023-04-16T09:00:06.789Z,16.26
2023-04-16T09:02:35.961Z,16.33
2023-04-16T09:05:07.157Z,16.44
2023-04-16T09:07:35.710Z,16.53
2023-04-16T09:10:06.117Z,16.58
2023-04-16T09:12:35.717Z,16.64
2023-04-16T09:15:05.633Z,16.69
2023-04-16T09:17:34.676Z,16.71
2023-04-16T09:20:06.076Z,16.72
2023-04-16T09:22:35.113Z,16.78
2023-04-16T09:25:03.885Z,16.86
2023-04-16T09:27:32.356Z,16.93
2023-04-16T09:30:00.534Z,16.99
2023-04-16T09:32:29.268Z,17.08
2023-04-16T09:35:02.022Z,17.16
2023-04-16T09:37:31.826Z,17.21
2023-04-16T09:40:06.746Z,17.25
2023-04-16T09:42:37.247Z,17.31
2023-04-16T09:45:06.562Z,17.35
2023-04-16T09:47:46.053Z,17.39
2023-04-16T09:50:19.578Z,17.46
2023-04-16T09:52:51.590Z,17.52
2023-04-16T09:55:28.149Z,17.58
2023-04-16T09:58:01.349Z,17.64
2023-04-16T10:00:31.629Z,17.67
2023-04-16T10:03:07.560Z,17.72
2023-04-16T10:05:37.141Z,17.80
2023-04-16T10:08:12.391Z,17.89
2023-04-16T10:10:40.750Z,17.97
2023-04-16T10:13:10.137Z,18.04
2023-04-16T10:15:39.110Z,18.12
2023-04-16T10:18:07.419Z,18.22
2023-04-16T10:20:36.816Z,18.30
2023-04-16T10:23:05.641Z,18.37
2023-04-16T10:25:34.195Z,18.44
2023-04-16T10:28:03.182Z,18.54
2023-04-16T10:30:31.584Z,18.63
2023-04-16T10:33:00.842Z,18.71
2023-04-16T10:35:30.890Z,18.74
2023-04-16T10:38:23.446Z,18.77
2023-04-16T10:40:59.623Z,18.80
2023-04-16T10:43:30.137Z,18.80
2023-04-16T10:46:17.264Z,18.77
2023-04-16T10:48:50.408Z,18.76
2023-04-16T10:51:36.447Z,18.76
2023-04-16T10:54:19.852Z,18.71
2023-04-16T10:56:48.325Z,18.65
2023-04-16T10:59:20.185Z,18.63
2023-04-16T11:02:01.704Z,18.60
2023-04-16T11:04:34.728Z,18.54
2023-04-16T11:07:14.011Z,18.45
2023-04-16T11:09:54.059Z,18.34
2023-04-16T11:12:31.137Z,18.22
2023-04-16T11:15:05.960Z,18.09
2023-04-16T11:17:38.024Z,17.91
2023-04-16T11:20:18.826Z,17.73
2023-04-16T11:22:53.180Z,17.56
2023-04-16T11:25:26.209Z,17.39
2023-04-16T11:27:54.991Z,17.32
2023-04-16T11:30:31.413Z,17.19
2023-04-16T11:33:02.310Z,17.14
2023-04-16T11:35:30.671Z,17.10
2023-04-16T11:37:59.786Z,17.06
2023-04-16T11:40:31.725Z,17.05
2023-04-16T11:43:05.190Z,17.06
2023-04-16T11:45:33.177Z,17.06
2023-04-16T11:48:01.302Z,17.02
2023-04-16T11:50:29.861Z,16.96
2023-04-16T11:53:04.535Z,16.94
2023-04-16T11:55:32.812Z,16.92
2023-04-16T11:58:12.937Z,16.91
2023-04-16T12:00:41.827Z,16.91
2023-04-16T12:03:10.267Z,16.90
2023-04-16T12:05:40.857Z,16.88
2023-04-16T12:08:11.438Z,16.86
2023-04-16T12:10:56.140Z,16.82
2023-04-16T12:13:24.181Z,16.77
2023-04-16T12:15:56.343Z,16.74
2023-04-16T12:18:29.137Z,16.67
2023-04-16T12:20:57.213Z,16.61
2023-04-16T12:23:27.589Z,16.55
2023-04-16T12:25:59.847Z,16.51
2023-04-16T12:28:30.166Z,16.48
2023-04-16T12:30:58.744Z,16.48
2023-04-16T12:33:27.086Z,16.48
2023-04-16T12:35:55.480Z,16.46
2023-04-16T12:38:24.620Z,16.44
2023-04-16T12:40:56.981Z,16.42
2023-04-16T12:43:26.058Z,16.38
2023-04-16T12:45:54.580Z,16.33
2023-04-16T12:48:22.688Z,16.31
2023-04-16T12:50:53.997Z,16.27
2023-04-16T12:53:21.990Z,16.26
2023-04-16T12:55:50.165Z,16.28
2023-04-16T12:58:18.239Z,16.30
2023-04-16T13:00:46.413Z,16.32
2023-04-16T13:03:14.557Z,16.36
2023-04-16T13:05:42.909Z,16.40
2023-04-16T13:08:11.346Z,16.45
2023-04-16T13:10:39.417Z,16.49
2023-04-16T13:13:07.794Z,16.54
2023-04-16T13:15:35.953Z,16.58
2023-04-16T13:18:04.678Z,16.63
2023-04-16T13:20:33.652Z,16.67
2023-04-16T13:23:01.820Z,16.71
2023-04-16T13:25:31.210Z,16.77
2023-04-16T13:27:59.296Z,16.85
2023-04-16T13:30:29.516Z,16.93
2023-04-16T13:32:57.642Z,17.01
2023-04-16T13:35:26.490Z,17.10
2023-04-16T13:37:54.552Z,17.20
2023-04-16T13:40:22.581Z,17.30
2023-04-16T13:42:51.010Z,17.41
2023-04-16T13:45:20.566Z,17.51
2023-04-16T13:47:48.705Z,17.65
2023-04-16T13:50:16.961Z,17.80
2023-04-16T13:52:45.048Z,17.95
2023-04-16T13:55:14.336Z,18.07
2023-04-16T13:57:42.501Z,18.15
2023-04-16T14:00:13.226Z,18.25
2023-04-16T14:02:43.101Z,18.33
2023-04-16T14:05:11.856Z,18.38
2023-04-16T14:07:39.895Z,18.41
2023-04-16T14:10:09.157Z,18.45
2023-04-16T14:12:38.814Z,18.50
2023-04-16T14:15:09.697Z,18.55
2023-04-16T14:17:38.008Z,18.62
2023-04-16T14:20:07.014Z,18.71
2023-04-16T14:22:35.138Z,18.81
2023-04-16T14:25:03.584Z,18.93
2023-04-16T14:27:31.870Z,19.03
2023-04-16T14:30:00.772Z,19.11
2023-04-16T14:32:28.948Z,19.18
2023-04-16T14:34:57.714Z,19.14
2023-04-16T14:37:26.813Z,19.04
2023-04-16T14:39:55.076Z,18.91
2023-04-16T14:42:23.060Z,18.80
2023-04-16T14:44:52.244Z,18.69
2023-04-16T14:47:20.418Z,18.56
2023-04-16T14:49:48.503Z,18.51
2023-04-16T14:52:17.129Z,18.50
2023-04-16T14:54:45.417Z,18.40
2023-04-16T14:57:14.272Z,18.29
2023-04-16T14:59:42.318Z,18.20
2023-04-16T15:02:11.049Z,18.07
2023-04-16T15:04:39.382Z,17.95
2023-04-16T15:07:07.863Z,17.88
2023-04-16T15:09:36.038Z,17.86
2023-04-16T15:12:04.731Z,17.82
2023-04-16T15:14:32.894Z,17.78
2023-04-16T15:17:01.555Z,17.71
2023-04-16T15:19:29.964Z,17.62
2023-04-16T15:21:58.239Z,17.56
2023-04-16T15:24:26.816Z,17.49
2023-04-16T15:26:54.997Z,17.42
2023-04-16T15:29:23.171Z,17.28
2023-04-16T15:31:51.237Z,17.18
2023-04-16T15:34:19.347Z,17.13
2023-04-16T15:36:47.794Z,17.01
2023-04-16T15:39:16.068Z,16.95
2023-04-16T15:41:59.327Z,16.87
2023-04-16T15:44:29.924Z,16.77
2023-04-16T15:46:58.407Z,16.68
2023-04-16T15:49:26.683Z,16.58
2023-04-16T15:51:56.295Z,16.46
2023-04-16T15:54:24.475Z,16.40
2023-04-16T15:56:52.672Z,16.34
2023-04-16T15:59:20.918Z,16.29
2023-04-16T16:01:49.213Z,16.20
2023-04-16T16:04:17.439Z,16.15
2023-04-16T16:06:45.847Z,16.09
2023-04-16T16:09:14.235Z,16.03
2023-04-16T16:11:42.522Z,15.93
2023-04-16T16:14:11.107Z,15.83
2023-04-16T16:16:39.939Z,15.81
2023-04-16T16:19:08.562Z,15.75
2023-04-16T16:21:37.269Z,15.69
2023-04-16T16:24:05.770Z,15.65
2023-04-16T16:26:34.006Z,15.63
2023-04-16T16:29:02.074Z,15.58
2023-04-16T16:31:30.208Z,15.52
2023-04-16T16:33:58.528Z,15.47
2023-04-16T16:36:27.626Z,15.42
2023-04-16T16:38:55.687Z,15.39
2023-04-16T16:41:23.773Z,15.37
2023-04-16T16:43:55.937Z,15.34
2023-04-16T16:46:24.135Z,15.30
2023-04-16T16:48:52.829Z,15.26
2023-04-16T16:51:21.679Z,15.24
2023-04-16T16:53:49.749Z,15.18
2023-04-16T16:56:17.822Z,15.15
2023-04-16T16:58:46.618Z,15.10
2023-04-16T17:01:14.732Z,15.06
2023-04-16T17:03:43.000Z,15.00
2023-04-16T17:06:11.297Z,14.92
2023-04-16T17:08:39.519Z,14.85
2023-04-16T17:11:07.595Z,14.77
2023-04-16T17:13:35.965Z,14.70
2023-04-16T17:16:04.192Z,14.63
2023-04-16T17:18:32.835Z,14.58
2023-04-16T17:21:01.557Z,14.52
2023-04-16T17:23:29.510Z,14.49
2023-04-16T17:25:59.497Z,14.44
2023-04-16T17:28:27.581Z,14.41
2023-04-16T17:30:56.977Z,14.37
2023-04-16T17:33:25.256Z,14.34
2023-04-16T17:35:53.356Z,14.30
2023-04-16T17:38:21.709Z,14.28
2023-04-16T17:40:49.768Z,14.27
2023-04-16T17:43:18.056Z,14.25
2023-04-16T17:45:46.152Z,14.25
2023-04-16T17:48:14.536Z,14.22
2023-04-16T17:50:42.672Z,14.19
2023-04-16T17:53:11.057Z,14.16
2023-04-16T17:55:39.289Z,14.11
2023-04-16T17:58:07.617Z,14.06
2023-04-16T18:00:35.671Z,14.03
2023-04-16T18:03:04.432Z,14.02
2023-04-16T18:05:32.740Z,14.01
2023-04-16T18:08:01.321Z,14.01
2023-04-16T18:10:31.872Z,14.00
2023-04-16T18:12:59.931Z,14.00
2023-04-16T18:15:28.037Z,13.99
2023-04-16T18:17:56.186Z,13.96
2023-04-16T18:20:24.375Z,13.95
2023-04-16T18:22:52.513Z,13.94
2023-04-16T18:25:29.975Z,13.91
2023-04-16T18:28:03.856Z,13.87
2023-04-16T18:30:32.738Z,13.84
2023-04-16T18:33:33.619Z,13.79
2023-04-16T18:35:50.152Z,13.76
2023-04-16T18:38:18.228Z,13.75
2023-04-16T18:40:47.215Z,13.73
2023-04-16T18:43:16.108Z,13.71
2023-04-16T18:45:44.278Z,13.69
2023-04-16T18:48:12.550Z,13.67
2023-04-16T18:50:40.722Z,13.65
2023-04-16T18:53:08.909Z,13.63
2023-04-16T18:55:37.068Z,13.61
2023-04-16T18:58:05.656Z,13.57
2023-04-16T19:00:33.822Z,13.53
2023-04-16T19:03:07.124Z,13.51
2023-04-16T19:05:35.680Z,13.48
2023-04-16T19:08:03.901Z,13.39
2023-04-16T19:10:31.958Z,13.10
2023-04-16T19:13:00.149Z,12.98
2023-04-16T19:15:31.098Z,12.92
2023-04-16T19:18:00.628Z,12.90
2023-04-16T19:20:28.912Z,12.90
2023-04-16T19:23:00.197Z,12.90
2023-04-16T19:25:28.360Z,12.90
2023-04-16T19:27:56.849Z,12.92
2023-04-16T19:30:25.072Z,12.93
2023-04-16T19:32:55.124Z,12.96
2023-04-16T19:35:23.627Z,12.99
2023-04-16T19:37:51.611Z,13.03
2023-04-16T19:40:19.785Z,13.04
2023-04-16T19:42:47.959Z,13.06
2023-04-16T19:45:16.436Z,13.08
2023-04-16T19:47:44.939Z,13.10
2023-04-16T19:50:13.096Z,13.12
2023-04-16T19:52:41.469Z,13.12
2023-04-16T19:55:10.249Z,13.12
2023-04-16T19:57:38.247Z,13.13
2023-04-16T20:00:11.973Z,13.13
2023-04-16T20:02:40.889Z,13.12
2023-04-16T20:05:09.803Z,13.11
2023-04-16T20:07:37.885Z,13.10
2023-04-16T20:10:06.413Z,13.08
2023-04-16T20:12:34.530Z,13.06
2023-04-16T20:15:02.608Z,13.04
2023-04-16T20:17:30.822Z,13.03
2023-04-16T20:20:01.164Z,13.02
2023-04-16T20:22:29.381Z,13.02
2023-04-16T20:24:58.179Z,12.98
2023-04-16T20:27:26.447Z,12.94
2023-04-16T20:29:54.614Z,12.90
2023-04-16T20:32:23.537Z,12.85
2023-04-16T20:34:52.876Z,12.75
2023-04-16T20:37:21.086Z,12.71
2023-04-16T20:39:54.307Z,12.66
2023-04-16T20:42:23.038Z,12.60
2023-04-16T20:44:55.865Z,12.54
2023-04-16T20:47:24.068Z,12.50
2023-04-16T20:49:54.988Z,12.46
2023-04-16T20:52:23.033Z,12.42
2023-04-16T20:54:52.558Z,12.40
2023-04-16T20:57:20.606Z,12.38
2023-04-16T20:59:49.606Z,12.38
2023-04-16T21:02:17.889Z,12.37
2023-04-16T21:04:46.781Z,12.35
2023-04-16T21:07:15.788Z,12.32
2023-04-16T21:09:44.048Z,12.28
2023-04-16T21:12:12.120Z,12.25
2023-04-16T21:14:40.489Z,12.22
2023-04-16T21:17:08.515Z,12.18
2023-04-16T21:19:36.528Z,12.14
2023-04-16T21:22:04.917Z,12.12
2023-04-16T21:24:32.894Z,12.10
2023-04-16T21:27:01.860Z,12.10
2023-04-16T21:29:30.457Z,12.11
2023-04-16T21:31:58.592Z,12.11
2023-04-16T21:34:26.626Z,12.13
2023-04-16T21:36:54.675Z,12.15
2023-04-16T21:39:22.948Z,12.17
2023-04-16T21:41:51.128Z,12.20
2023-04-16T21:44:19.201Z,12.23
2023-04-16T21:46:47.315Z,12.24
2023-04-16T21:49:15.539Z,12.26
2023-04-16T21:51:46.274Z,12.28
2023-04-16T21:54:18.002Z,12.29
2023-04-16T21:56:46.410Z,12.29
2023-04-16T21:59:14.591Z,12.29
2023-04-16T22:01:42.796Z,12.31
2023-04-16T22:04:12.406Z,12.33
2023-04-16T22:06:40.849Z,12.33
2023-04-16T22:09:09.805Z,12.31
2023-04-16T22:11:38.432Z,12.31
2023-04-16T22:14:08.360Z,12.31
2023-04-16T22:16:36.601Z,12.30
2023-04-16T22:19:04.898Z,12.28
2023-04-16T22:21:32.966Z,12.26
2023-04-16T22:24:01.141Z,12.24
2023-04-16T22:26:29.256Z,12.22
2023-04-16T22:28:57.280Z,12.17
2023-04-16T22:31:25.379Z,12.12
2023-04-16T22:33:53.636Z,12.08
2023-04-16T22:36:22.123Z,12.05
2023-04-16T22:38:50.498Z,12.01
2023-04-16T22:41:18.583Z,11.96
2023-04-16T22:43:46.764Z,11.91
2023-04-16T22:46:15.207Z,11.86
2023-04-16T22:48:43.389Z,11.79
2023-04-16T22:51:11.669Z,11.73
2023-04-16T22:53:39.611Z,11.68
2023-04-16T22:56:07.836Z,11.63
2023-04-16T22:58:36.184Z,11.57
2023-04-16T23:01:04.310Z,11.52
2023-04-16T23:03:32.524Z,11.48
2023-04-16T23:06:00.807Z,11.45
2023-04-16T23:08:28.806Z,11.40
2023-04-16T23:10:56.956Z,11.36
2023-04-16T23:13:25.030Z,11.32
2023-04-16T23:15:53.163Z,11.29
2023-04-16T23:18:21.273Z,11.25
2023-04-16T23:20:53.140Z,11.23
2023-04-16T23:23:21.413Z,11.19
2023-04-16T23:25:53.287Z,11.16
2023-04-16T23:28:22.368Z,11.14
2023-04-16T23:30:53.574Z,11.14
2023-04-16T23:33:21.895Z,11.14
2023-04-16T23:35:49.860Z,11.14
2023-04-16T23:38:17.934Z,11.14
2023-04-16T23:40:46.100Z,11.14
2023-04-16T23:43:14.174Z,11.17
2023-04-16T23:45:42.208Z,11.18
2023-04-16T23:48:10.645Z,11.19
2023-04-16T23:50:38.705Z,11.18
2023-04-16T23:53:06.769Z,11.17
2023-04-16T23:55:34.846Z,11.15
2023-04-16T23:58:03.137Z,11.14
